Time;durP1;ratioP1;P1;durP2;ratioP2;P2;SDS_P1;SDS_P2;PMS_P1;PMS_P2;Temp;Humidity;BMP_temperature;BMP_pressure;BME280_temperature;BME280_humidity;BME280_pressure;Samples;Min_cycle;Max_cycle;Signal;HPM_P1;HPM_P2
2022/11/28 00:00:52;;;;;;;48.42;26.00;;;;;;;1.79;87.48;101801.94;1661708;84;21091;-78
2022/11/28 00:03:37;;;;;;;54.60;28.07;;;;;;;1.76;87.45;101803.97;1677665;84;22379;-78
2022/11/28 00:06:23;;;;;;;45.60;25.48;;;;;;;1.72;87.35;101803.79;1667256;84;21043;-78
2022/11/28 00:09:08;;;;;;;46.90;25.17;;;;;;;1.66;87.30;101798.91;1643094;86;21098;-78
2022/11/28 00:11:53;;;;;;;46.88;24.98;;;;;;;1.62;87.31;101795.78;1634602;87;21652;-78
2022/11/28 00:14:38;;;;;;;44.98;24.60;;;;;;;1.58;87.36;101792.64;1693054;82;261668;-79
2022/11/28 00:17:23;;;;;;;44.05;24.92;;;;;;;1.53;87.32;101793.30;1672004;85;21124;-79
2022/11/28 00:20:08;;;;;;;45.12;24.80;;;;;;;1.46;87.20;101798.56;1667195;85;159852;-78
2022/11/28 00:22:53;;;;;;;49.23;27.20;;;;;;;1.40;87.15;101794.50;1671288;83;21084;-78
2022/11/28 00:25:39;;;;;;;49.90;25.80;;;;;;;1.35;87.17;101794.72;1663783;83;22389;-78
2022/11/28 00:28:24;;;;;;;47.78;25.17;;;;;;;1.31;87.16;101788.63;1670016;83;21092;-78
2022/11/28 00:31:20;;;;;;;42.13;24.12;;;;;;;1.27;87.19;101788.03;1666747;83;21597;-78
2022/11/28 00:34:05;;;;;;;43.80;24.87;;;;;;;1.19;87.05;101784.30;1672374;83;21541;-78
2022/11/28 00:36:50;;;;;;;50.73;26.68;;;;;;;1.14;87.07;101781.97;1669577;84;21103;-78
2022/11/28 00:39:35;;;;;;;51.85;26.80;;;;;;;1.09;87.12;101779.64;1670946;83;21162;-78
2022/11/28 00:42:21;;;;;;;52.53;27.20;;;;;;;1.08;87.27;101777.91;1671461;84;21096;-79
2022/11/28 00:45:08;;;;;;;52.00;27.35;;;;;;;1.10;87.30;101784.33;1668135;83;21704;-78
2022/11/28 00:47:52;;;;;;;;;;;;;;;1.09;87.25;101777.50;1672045;85;21087;-78
2022/11/28 00:50:37;;;;;;;43.23;24.67;;;;;;;1.07;87.25;101775.29;1668169;83;20212;-78
2022/11/28 00:53:22;;;;;;;48.15;25.70;;;;;;;1.07;87.23;101774.89;1671731;84;21135;-78
2022/11/28 00:56:10;;;;;;;45.98;26.75;;;;;;;1.05;87.22;101777.77;1666754;83;21491;-78
2022/11/28 00:58:55;;;;;;;48.95;25.52;;;;;;;1.09;87.33;101772.41;1671561;84;21073;-78
2022/11/28 01:01:42;;;;;;;54.45;28.00;;;;;;;1.10;87.26;101771.19;1651623;84;39879;-78
2022/11/28 01:04:27;;;;;;;50.30;27.58;;;;;;;1.06;87.13;101766.78;1670561;85;21085;-78
2022/11/28 01:07:13;;;;;;;53.20;26.60;;;;;;;1.05;87.17;101767.59;1674905;83;21037;-78
2022/11/28 01:09:58;;;;;;;56.45;29.05;;;;;;;1.06;87.23;101764.23;1676433;84;21733;-79
2022/11/28 01:12:43;;;;;;;51.93;27.73;;;;;;;1.07;87.32;101762.16;1676357;83;21096;-79
2022/11/28 01:15:28;;;;;;;53.47;27.17;;;;;;;1.08;87.22;101758.80;1532044;83;5001511;-78
2022/11/28 01:18:13;;;;;;;48.60;27.58;;;;;;;1.08;87.23;101757.93;1639814;84;21042;-78
2022/11/28 01:20:58;;;;;;;48.60;27.98;;;;;;;1.02;87.15;101756.03;1640349;85;21010;-78
2022/11/28 01:23:43;;;;;;;48.05;26.90;;;;;;;1.03;87.24;101746.72;1642567;84;21582;-78
2022/11/28 01:26:29;;;;;;;49.65;26.87;;;;;;;1.03;87.20;101739.95;1640424;84;20992;-79
2022/11/28 01:29:15;;;;;;;47.83;25.32;;;;;;;1.03;87.12;101735.26;1640197;84;20954;-78
2022/11/28 01:31:59;;;;;;;46.75;26.85;;;;;;;0.99;87.10;101735.13;1642133;84;20978;-78
2022/11/28 01:34:44;;;;;;;48.52;26.42;;;;;;;0.98;87.07;101729.57;1640391;85;20999;-78
2022/11/28 01:37:29;;;;;;;53.65;27.25;;;;;;;0.98;87.11;101730.84;1640732;85;20970;-78
2022/11/28 01:40:15;;;;;;;48.58;26.55;;;;;;;0.97;87.07;101732.92;1641971;86;20974;-78
2022/11/28 01:42:59;;;;;;;44.00;25.20;;;;;;;0.95;86.94;101723.48;1644854;84;20946;-78
2022/11/28 01:45:45;;;;;;;43.28;24.92;;;;;;;0.89;86.89;101721.56;1640539;84;20938;-78
2022/11/28 01:48:39;;;;;;;44.20;25.93;;;;;;;0.85;86.93;101721.37;1640719;85;21337;-78
2022/11/28 01:51:25;;;;;;;47.15;25.57;;;;;;;0.83;86.92;101727.67;1638892;84;21783;-78
2022/11/28 01:54:10;;;;;;;48.30;26.48;;;;;;;0.79;86.84;101728.35;1641697;85;20954;-79
2022/11/28 01:57:03;;;;;;;46.10;26.30;;;;;;;0.75;86.85;101724.34;1639599;84;20953;-79
2022/11/28 02:00:05;;;;;;;49.23;26.75;;;;;;;0.74;86.94;101722.60;1642400;84;21530;-78
2022/11/28 02:03:06;;;;;;;43.63;25.75;;;;;;;0.71;86.86;101718.25;1639290;85;21494;-78
2022/11/28 02:05:52;;;;;;;45.83;25.02;;;;;;;0.69;86.91;101715.17;1644650;85;20946;-78
2022/11/28 02:08:42;;;;;;;45.12;25.50;;;;;;;0.64;86.77;101712.03;1641261;84;20985;-79
2022/11/28 02:11:36;;;;;;;48.20;25.60;;;;;;;0.62;86.82;101703.87;1642345;84;20989;-78
2022/11/28 02:14:46;;;;;;;48.02;25.52;;;;;;;0.61;86.92;101707.22;1641996;84;20993;-79
2022/11/28 02:17:56;;;;;;;42.78;24.90;;;;;;;0.60;86.88;101707.63;1640775;84;21368;-78
2022/11/28 02:21:05;;;;;;;41.02;24.63;;;;;;;0.59;86.84;101705.02;1637725;85;21105;-78
2022/11/28 02:23:55;;;;;;;39.85;23.57;;;;;;;0.55;86.85;101698.92;1639026;84;21141;-78
2022/11/28 02:26:57;;;;;;;49.40;25.30;;;;;;;0.55;86.84;101703.14;1638826;84;21149;-78
2022/11/28 02:30:25;;;;;;;46.50;25.85;;;;;;;0.53;86.88;101694.58;1639624;84;21121;-78
2022/11/28 02:33:19;;;;;;;45.65;25.45;;;;;;;0.52;86.88;101692.88;1641050;84;22211;-78
2022/11/28 02:36:21;;;;;;;41.48;25.27;;;;;;;0.48;86.83;101689.33;1641354;85;21061;-78
2022/11/28 02:39:26;;;;;;;43.40;24.50;;;;;;;0.47;86.81;101690.13;1640481;84;21150;-77
2022/11/28 02:42:25;;;;;;;46.75;25.17;;;;;;;0.46;86.85;101694.75;1642390;84;21145;-78
2022/11/28 02:45:24;;;;;;;42.45;24.27;;;;;;;0.44;86.81;101696.77;1640212;84;21088;-78
2022/11/28 02:48:13;;;;;;;44.05;24.63;;;;;;;0.41;86.82;101693.69;1638320;85;21436;-78
2022/11/28 02:51:12;;;;;;;45.58;26.45;;;;;;;0.37;86.77;101693.09;1639037;85;21121;-77
2022/11/28 02:54:00;;;;;;;50.60;26.45;;;;;;;0.35;86.75;101691.28;1630648;84;21145;-78
2022/11/28 02:56:50;;;;;;;49.18;26.20;;;;;;;0.32;86.72;101688.20;1632297;85;21637;-78
2022/11/28 02:59:44;;;;;;;46.68;25.55;;;;;;;0.29;86.74;101690.63;1641534;84;21022;-78
2022/11/28 03:02:32;;;;;;;56.68;26.85;;;;;;;0.25;86.72;101687.08;1639595;84;21132;-78
2022/11/28 03:05:25;;;;;;;49.48;27.25;;;;;;;0.22;86.69;101684.80;1640780;85;21070;-77
2022/11/28 03:08:39;;;;;;;53.58;27.60;;;;;;;0.19;86.70;101684.67;1638908;84;21745;-77
2022/11/28 03:12:01;;;;;;;37.95;20.60;;;;;;;0.14;86.69;101674.70;1640129;85;21061;-78
2022/11/28 03:14:56;;;;;;;51.45;26.17;;;;;;;0.09;86.74;101668.55;1629058;85;21104;-78
2022/11/28 03:18:11;;;;;;;45.25;25.05;;;;;;;0.09;86.77;101666.00;1631337;86;21101;-78
2022/11/28 03:21:12;;;;;;;49.05;27.20;;;;;;;0.11;86.84;101664.00;1629965;86;21172;-78
2022/11/28 03:24:02;;;;;;;47.60;25.75;;;;;;;0.14;86.89;101674.30;1559686;89;21246;-78
2022/11/28 03:27:01;;;;;;;52.58;28.62;;;;;;;0.15;86.81;101668.41;1575562;89;21667;-77
2022/11/28 03:29:50;;;;;;;51.55;27.73;;;;;;;0.16;86.82;101670.15;1579129;88;21660;-78
2022/11/28 03:32:38;;;;;;;48.87;26.30;;;;;;;0.15;86.76;101667.14;1627801;86;21132;-78
2022/11/28 03:35:28;;;;;;;48.98;26.48;;;;;;;0.15;86.75;101662.45;1632395;86;21167;-77
2022/11/28 03:38:25;;;;;;;47.93;27.02;;;;;;;0.14;86.66;101658.17;1620021;86;21151;-77
2022/11/28 03:41:30;;;;;;;51.30;27.10;;;;;;;0.12;86.61;101664.87;1623844;86;21990;-78
2022/11/28 03:44:20;;;;;;;54.20;29.45;;;;;;;0.10;86.63;101663.53;1628192;86;21105;-78
2022/11/28 03:47:06;;;;;;;56.73;29.05;;;;;;;0.07;86.65;101661.25;1630244;86;21503;-77
2022/11/28 03:49:54;;;;;;;53.60;28.98;;;;;;;0.04;86.67;101659.84;1622294;86;21022;-78
2022/11/28 03:52:49;;;;;;;59.27;30.75;;;;;;;0.02;86.68;101653.83;1638566;84;21475;-78
2022/11/28 03:55:51;;;;;;;60.95;30.77;;;;;;;0.00;86.68;101652.09;1639850;85;21380;-78
2022/11/28 03:58:56;;;;;;;57.15;30.85;;;;;;;-0.01;86.68;101651.66;1642292;85;20942;-78
2022/11/28 04:01:55;;;;;;;58.95;30.52;;;;;;;-0.06;86.60;101645.50;1633110;84;21022;-78
2022/11/28 04:04:54;;;;;;;61.02;32.10;;;;;;;-0.09;86.61;101639.41;1643310;84;20994;-78
2022/11/28 04:07:59;;;;;;;55.52;28.92;;;;;;;-0.10;86.67;101644.90;1641757;84;21412;-79
2022/11/28 04:10:49;;;;;;;56.58;29.75;;;;;;;-0.09;86.71;101635.59;1642611;84;20962;-79
2022/11/28 04:13:38;;;;;;;56.28;30.20;;;;;;;-0.09;86.72;101633.06;1643984;84;20922;-79
2022/11/28 04:16:38;;;;;;;55.20;29.87;;;;;;;-0.07;86.72;101626.37;1644154;84;21549;-77
2022/11/28 04:19:45;;;;;;;52.98;28.67;;;;;;;-0.05;86.77;101626.91;1642815;85;21061;-78
2022/11/28 04:22:47;;;;;;;53.70;28.98;;;;;;;-0.04;86.69;101628.64;1643129;84;20949;-78
2022/11/28 04:25:36;;;;;;;58.25;30.27;;;;;;;-0.03;86.69;101618.07;1644080;84;20986;-79
2022/11/28 04:28:25;;;;;;;54.55;28.47;;;;;;;-0.01;86.72;101625.36;1648554;84;20970;-78
2022/11/28 04:31:10;;;;;;;53.52;29.57;;;;;;;0.00;86.64;101617.77;1641959;85;20934;-78
2022/11/28 04:33:59;;;;;;;51.30;27.60;;;;;;;-0.01;86.68;101614.79;1647450;84;21768;-78
2022/11/28 04:36:45;;;;;;;54.58;28.80;;;;;;;0.02;86.66;101614.42;1627310;84;20978;-78
2022/11/28 04:39:32;;;;;;;53.08;28.80;;;;;;;-0.01;86.59;101615.19;1642670;84;20951;-78
2022/11/28 04:42:34;;;;;;;57.60;29.27;;;;;;;0.00;86.62;101609.30;1644990;84;21014;-78
2022/11/28 04:45:36;;;;;;;50.92;29.05;;;;;;;0.02;86.66;101612.75;1642530;84;20962;-79
2022/11/28 04:48:20;;;;;;;59.40;27.82;;;;;;;0.02;86.60;101605.52;1641980;85;20982;-78
2022/11/28 04:51:28;;;;;;;55.90;28.42;;;;;;;0.00;86.56;101612.68;1637833;85;20970;-79
2022/11/28 04:54:30;;;;;;;51.55;27.48;;;;;;;-0.02;86.61;101607.97;1646380;84;20966;-78
2022/11/28 04:57:51;;;;;;;55.60;29.10;;;;;;;0.00;86.64;101608.03;1634737;85;20994;-78
2022/11/28 05:00:38;;;;;;;54.63;28.23;;;;;;;0.00;86.59;101610.14;1632539;85;20972;-78
2022/11/28 05:03:26;;;;;;;;;;;;;;;-0.06;86.51;101607.77;1635494;85;21083;-78
2022/11/28 05:06:24;;;;;;;60.70;29.37;;;;;;;-0.09;86.52;101608.51;1634843;84;20577;-79
2022/11/28 05:09:11;;;;;;;70.17;31.12;;;;;;;-0.12;86.49;101604.56;1628773;85;21140;-76
2022/11/28 05:11:56;;;;;;;71.20;32.13;;;;;;;-0.13;86.55;101604.50;1633162;85;21160;-77
2022/11/28 05:14:41;;;;;;;71.00;32.17;;;;;;;-0.14;86.53;101610.38;1629314;85;22241;-77
2022/11/28 05:17:26;;;;;;;67.40;31.50;;;;;;;-0.16;86.56;101611.59;1632489;85;21699;-76
2022/11/28 05:20:12;;;;;;;68.20;34.25;;;;;;;-0.17;86.53;101614.94;1632657;85;21179;-77
2022/11/28 05:22:57;;;;;;;68.65;34.45;;;;;;;-0.19;86.51;101620.34;1630432;85;21279;-77
2022/11/28 05:25:42;;;;;;;68.55;34.00;;;;;;;-0.21;86.47;101614.73;1627606;85;21171;-77
2022/11/28 05:28:27;;;;;;;66.20;31.75;;;;;;;-0.23;86.44;101613.39;1629469;85;21656;-77
2022/11/28 05:31:13;;;;;;;67.62;32.50;;;;;;;-0.26;86.40;101610.72;1632944;85;21167;-77
2022/11/28 05:33:58;;;;;;;65.65;32.00;;;;;;;-0.28;86.44;101602.16;1638053;85;21058;-77
2022/11/28 05:36:43;;;;;;;60.23;29.82;;;;;;;-0.28;86.48;101603.83;1645187;84;21109;-78
2022/11/28 05:39:28;;;;;;;62.17;29.87;;;;;;;-0.29;86.38;101602.09;1642033;84;21113;-77
2022/11/28 05:42:13;;;;;;;59.70;29.75;;;;;;;-0.32;86.42;101602.83;1645390;84;21089;-80
2022/11/28 05:44:58;;;;;;;62.83;30.65;;;;;;;-0.36;86.44;101596.73;1644411;84;21124;-80
2022/11/28 05:47:43;;;;;;;59.58;29.55;;;;;;;-0.36;86.47;101592.06;1646904;84;21700;-80
2022/11/28 05:50:28;;;;;;;61.13;29.65;;;;;;;-0.37;86.50;101595.00;1647102;84;21620;-80
2022/11/28 05:53:13;;;;;;;57.05;29.75;;;;;;;-0.38;86.44;101598.74;1642523;84;21728;-75
2022/11/28 05:55:59;;;;;;;61.80;30.45;;;;;;;-0.41;86.46;101600.75;1640974;84;21109;-75
2022/11/28 05:58:44;;;;;;;54.15;27.85;;;;;;;-0.43;86.42;101593.86;1625154;85;21456;-75
2022/11/28 06:01:29;;;;;;;61.83;30.32;;;;;;;-0.42;86.43;101593.93;1631811;85;21121;-75
2022/11/28 06:04:15;;;;;;;57.73;29.40;;;;;;;-0.43;86.42;101595.13;1642393;84;21669;-76
2022/11/28 06:07:00;;;;;;;55.60;29.65;;;;;;;-0.44;86.43;101587.04;1639571;84;21088;-75
2022/11/28 06:09:44;;;;;;;60.55;29.35;;;;;;;-0.44;86.42;101585.77;1640164;84;21810;-75
2022/11/28 06:12:30;;;;;;;56.65;30.08;;;;;;;-0.47;86.36;101578.88;1641332;84;21013;-75
2022/11/28 06:15:15;;;;;;;58.68;29.60;;;;;;;-0.47;86.39;101581.83;1640933;85;21093;-75
2022/11/28 06:18:00;;;;;;;53.08;28.75;;;;;;;-0.48;86.32;101577.55;1641838;84;21128;-75
2022/11/28 06:20:45;;;;;;;54.27;29.03;;;;;;;-0.52;86.30;101577.81;1641694;84;21990;-75
2022/11/28 06:23:31;;;;;;;54.60;28.50;;;;;;;-0.52;86.33;101574.44;1641958;85;21593;-75
2022/11/28 06:26:20;;;;;;;55.80;28.67;;;;;;;-0.54;86.32;101573.09;1640691;84;21092;-76
2022/11/28 06:29:05;;;;;;;54.08;27.67;;;;;;;-0.55;86.33;101569.22;1641715;84;21093;-75
2022/11/28 06:31:50;;;;;;;52.30;27.50;;;;;;;-0.54;86.41;101565.87;1643806;84;21089;-75
2022/11/28 06:34:35;;;;;;;55.05;27.65;;;;;;;-0.55;86.36;101561.59;1645716;84;21344;-76
2022/11/28 06:37:20;;;;;;;53.58;28.57;;;;;;;-0.55;86.37;101566.68;1640531;84;21136;-76
2022/11/28 06:40:07;;;;;;;52.30;26.93;;;;;;;-0.53;86.49;101572.70;1638176;84;21610;-76
2022/11/28 06:42:51;;;;;;;49.10;26.90;;;;;;;-0.51;86.46;101564.31;1642169;84;20953;-76
2022/11/28 06:45:36;;;;;;;46.48;26.10;;;;;;;-0.51;86.37;101563.44;1641230;84;21533;-75
2022/11/28 06:48:22;;;;;;;50.92;26.93;;;;;;;-0.50;86.40;101562.64;1644232;83;20974;-76
2022/11/28 06:51:07;;;;;;;53.57;26.57;;;;;;;-0.52;86.30;101564.27;1644058;84;20961;-76
2022/11/28 06:53:53;;;;;;;51.10;26.57;;;;;;;-0.50;86.40;101561.37;1643331;84;21148;-76
2022/11/28 06:56:40;;;;;;;47.15;25.17;;;;;;;-0.49;86.32;101561.83;1642023;84;21377;-75
2022/11/28 06:59:24;;;;;;;43.08;23.92;;;;;;;-0.48;86.35;101562.30;1642676;84;21480;-75
2022/11/28 07:02:10;;;;;;;49.80;25.17;;;;;;;-0.46;86.39;101559.42;1643105;84;21009;-75
2022/11/28 07:04:56;;;;;;;48.58;24.92;;;;;;;-0.44;86.41;101566.72;1644393;84;20990;-75
2022/11/28 07:07:42;;;;;;;50.98;26.37;;;;;;;-0.40;86.40;101562.23;1642129;84;21643;-75
2022/11/28 07:10:28;;;;;;;54.05;26.77;;;;;;;-0.39;86.33;101563.97;1640560;84;20926;-76
2022/11/28 07:13:12;;;;;;;56.30;28.87;;;;;;;-0.36;86.36;101564.11;1643607;84;20998;-75
2022/11/28 07:15:58;;;;;;;53.33;27.42;;;;;;;-0.28;86.46;101566.98;1641722;84;20930;-76
2022/11/28 07:18:43;;;;;;;52.75;26.15;;;;;;;-0.18;86.61;101567.44;1602362;87;20989;-75
2022/11/28 07:21:29;;;;;;;52.43;26.40;;;;;;;0.10;86.79;101563.48;1610704;86;21120;-76
2022/11/28 07:24:13;;;;;;;43.73;21.40;;;;;;;0.39;86.80;101559.59;1640638;85;160456;-75
2022/11/28 07:26:58;;;;;;;62.00;29.95;;;;;;;0.57;86.62;101556.08;1653116;85;20986;-75
2022/11/28 07:29:43;;;;;;;72.67;33.88;;;;;;;0.73;86.61;101551.59;1646990;86;20961;-75
2022/11/28 07:32:28;;;;;;;105.97;45.20;;;;;;;0.87;86.53;101559.36;1652529;83;21876;-75
2022/11/28 07:35:13;;;;;;;86.87;39.92;;;;;;;0.93;86.41;101557.05;1647338;85;21034;-75
2022/11/28 07:37:58;;;;;;;94.13;40.73;;;;;;;1.07;86.50;101554.98;1651901;86;20962;-76
2022/11/28 07:40:43;;;;;;;87.90;39.73;;;;;;;1.11;86.32;101556.44;1647700;85;21388;-76
2022/11/28 07:43:28;;;;;;;62.85;33.38;;;;;;;1.13;86.33;101556.09;1646087;85;20926;-76
2022/11/28 07:46:16;;;;;;;66.90;33.35;;;;;;;1.13;86.21;101557.77;1652513;84;20938;-76
2022/11/28 07:49:02;;;;;;;84.85;42.85;;;;;;;1.11;86.21;101557.71;1647268;85;21308;-76
2022/11/28 07:51:47;;;;;;;84.45;46.20;;;;;;;1.10;86.32;101554.70;1646795;86;20982;-75
2022/11/28 07:54:32;;;;;;;63.02;35.52;;;;;;;1.08;86.33;101553.77;1643207;85;21411;-75
2022/11/28 07:57:17;;;;;;;64.87;32.48;;;;;;;1.10;86.43;101549.61;1645942;86;20934;-76
2022/11/28 08:00:04;;;;;;;64.00;32.60;;;;;;;1.09;86.44;101549.14;1647014;85;21078;-75
2022/11/28 08:02:49;;;;;;;62.03;31.57;;;;;;;1.09;86.47;101548.27;1652031;84;20922;-76
2022/11/28 08:05:35;;;;;;;55.45;26.52;;;;;;;1.08;86.48;101546.13;1650484;86;20957;-76
2022/11/28 08:08:19;;;;;;;43.65;24.25;;;;;;;1.10;86.48;101548.73;1655154;84;21422;-75
2022/11/28 08:11:08;;;;;;;44.05;24.12;;;;;;;1.11;86.54;101552.61;1650556;84;20934;-76
2022/11/28 08:13:52;;;;;;;44.53;24.00;;;;;;;1.11;86.54;101550.47;1651849;84;21395;-75
2022/11/28 08:16:40;;;;;;;44.63;23.20;;;;;;;1.13;86.58;101542.48;1647356;84;21399;-76
2022/11/28 08:19:24;;;;;;;46.90;25.12;;;;;;;1.15;86.61;101544.69;1647270;85;21370;-75
2022/11/28 08:22:09;;;;;;;66.07;29.55;;;;;;;1.17;86.64;101537.56;1645675;86;21584;-76
2022/11/28 08:24:53;;;;;;;59.30;27.17;;;;;;;1.21;86.62;101537.27;1646241;85;21558;-75
2022/11/28 08:27:38;;;;;;;76.75;32.73;;;;;;;1.21;86.61;101531.77;1647074;85;21488;-76
2022/11/28 08:30:23;;;;;;;80.55;34.83;;;;;;;1.26;86.68;101536.62;1647250;84;20934;-75
2022/11/28 08:33:08;;;;;;;68.30;32.73;;;;;;;1.28;86.61;101534.13;1651811;84;21514;-76
2022/11/28 08:35:53;;;;;;;76.37;35.43;;;;;;;1.32;86.70;101532.16;1648110;85;20986;-76
2022/11/28 08:38:38;;;;;;;76.67;35.73;;;;;;;1.37;86.67;101534.87;1654008;84;21006;-75
2022/11/28 08:41:23;;;;;;;64.05;30.55;;;;;;;1.37;86.61;101531.92;1649516;85;20914;-75
2022/11/28 08:44:08;;;;;;;48.90;23.07;;;;;;;1.41;86.62;101537.99;1646886;86;21017;-75
2022/11/28 08:46:53;;;;;;;49.18;23.30;;;;;;;1.45;86.63;101530.92;1645188;85;21466;-75
2022/11/28 08:49:38;;;;;;;60.03;26.60;;;;;;;1.47;86.59;101530.16;1652220;83;21430;-75
2022/11/28 08:52:24;;;;;;;51.50;23.62;;;;;;;1.52;86.56;101530.33;1646789;86;20979;-75
2022/11/28 08:55:09;;;;;;;61.85;28.90;;;;;;;1.55;86.60;101529.16;1647239;85;21818;-75
2022/11/28 08:57:54;;;;;;;57.38;26.93;;;;;;;1.60;86.63;101530.16;1651717;84;20966;-75
2022/11/28 09:00:41;;;;;;;46.83;24.65;;;;;;;1.66;86.70;101526.14;1647255;86;20918;-75
2022/11/28 09:03:26;;;;;;;53.28;25.12;;;;;;;1.67;86.54;101529.55;1651940;85;21374;-76
2022/11/28 09:06:11;;;;;;;66.05;30.70;;;;;;;1.72;86.63;101526.76;1647994;85;20898;-76
2022/11/28 09:08:57;;;;;;;61.25;30.27;;;;;;;1.76;86.61;101529.88;1683797;83;20985;-76
2022/11/28 09:11:42;;;;;;;55.33;28.00;;;;;;;1.79;86.61;101524.87;1681252;82;20982;-75
2022/11/28 09:14:27;;;;;;;57.93;27.00;;;;;;;1.85;86.62;101521.27;1681790;82;21057;-76
2022/11/28 09:17:14;;;;;;;53.52;25.55;;;;;;;1.90;86.62;101519.73;1681893;83;20989;-76
2022/11/28 09:19:59;;;;;;;47.15;23.70;;;;;;;1.95;86.59;101513.52;1681780;84;21011;-76
2022/11/28 09:22:46;;;;;;;41.20;20.20;;;;;;;2.00;86.57;101511.98;1655631;85;20931;-75
2022/11/28 09:25:30;;;;;;;42.85;21.75;;;;;;;2.06;86.52;101512.59;1644601;85;20980;-76
2022/11/28 09:28:15;;;;;;;40.70;20.62;;;;;;;2.12;86.51;101509.81;1652776;84;21470;-75
2022/11/28 09:31:05;;;;;;;32.25;17.77;;;;;;;2.18;86.50;101507.45;1643918;86;20968;-75
2022/11/28 09:33:50;;;;;;;42.62;20.92;;;;;;;2.25;86.48;101502.14;1646949;86;20938;-75
2022/11/28 09:36:35;;;;;;;36.55;20.08;;;;;;;2.30;86.36;101500.60;1644802;85;21353;-76
2022/11/28 09:39:20;;;;;;;37.83;20.77;;;;;;;2.35;86.32;101496.92;1651120;86;21366;-75
2022/11/28 09:42:42;;;;;;;35.38;19.62;;;;;;;2.41;86.38;101495.84;1647512;85;21486;-75
2022/11/28 09:45:27;;;;;;;35.00;19.45;;;;;;;2.46;86.38;101489.19;1645404;86;21799;-75
2022/11/28 09:48:41;;;;;;;35.38;18.95;;;;;;;2.52;86.45;101492.80;1643848;86;21905;-75
2022/11/28 09:51:42;;;;;;;33.38;19.10;;;;;;;2.56;86.37;101488.66;1645842;85;20923;-75
2022/11/28 09:54:35;;;;;;;37.05;19.70;;;;;;;2.61;86.28;101487.94;1649658;84;20978;-75
2022/11/28 09:57:46;;;;;;;33.38;20.37;;;;;;;2.66;86.25;101490.23;1645397;85;21455;-75
2022/11/28 10:00:38;;;;;;;38.28;20.60;;;;;;;2.73;86.34;101482.75;1591513;88;21018;-76
2022/11/28 10:03:34;;;;;;;33.10;18.02;;;;;;;2.79;86.27;101479.09;1634754;87;21034;-76
2022/11/28 10:06:47;;;;;;;35.58;19.52;;;;;;;2.83;86.26;101467.74;1632944;86;20954;-76
2022/11/28 10:09:40;;;;;;;37.30;19.55;;;;;;;2.87;86.18;101467.01;1624425;86;20978;-75
2022/11/28 10:12:48;;;;;;;37.15;20.25;;;;;;;2.92;86.26;101467.14;1623678;88;20998;-76
2022/11/28 10:15:56;;;;;;;33.80;18.55;;;;;;;2.93;86.12;101468.47;1622817;86;20987;-75
2022/11/28 10:19:07;;;;;;;33.78;19.50;;;;;;;2.96;86.10;101457.47;1624458;85;21569;-76
2022/11/28 10:21:56;;;;;;;36.85;20.37;;;;;;;2.97;85.77;101454.95;1623381;86;21568;-75
2022/11/28 10:24:54;;;;;;;39.58;20.32;;;;;;;2.97;85.93;101454.09;1623777;86;21557;-76
2022/11/28 10:27:40;;;;;;;38.58;20.65;;;;;;;2.99;86.04;101452.45;1592473;88;21049;-76
2022/11/28 10:30:31;;;;;;;37.13;20.65;;;;;;;3.03;86.01;101457.23;1622977;86;28627;-75
2022/11/28 10:33:29;;;;;;;45.08;21.87;;;;;;;3.04;85.89;101447.05;1622038;86;20987;-75
2022/11/28 10:36:27;;;;;;;39.50;21.40;;;;;;;3.07;85.95;101436.92;1602967;86;21434;-76
2022/11/28 10:39:12;;;;;;;38.60;21.42;;;;;;;3.09;85.80;101431.85;1626603;86;21556;-76
2022/11/28 10:42:21;;;;;;;36.13;20.95;;;;;;;3.11;85.87;101430.20;1627525;85;21652;-76
2022/11/28 10:45:35;;;;;;;37.30;21.60;;;;;;;3.17;86.04;101427.38;1682489;82;20972;-76
2022/11/28 10:48:34;;;;;;;34.10;19.45;;;;;;;3.23;86.05;101431.78;1684782;83;20974;-76
2022/11/28 10:51:57;;;;;;;38.67;20.70;;;;;;;3.26;85.98;101430.17;1682730;84;21395;-75
2022/11/28 10:54:53;;;;;;;34.13;19.85;;;;;;;3.28;85.80;101417.03;1682789;82;21517;-76
2022/11/28 10:57:52;;;;;;;36.05;19.98;;;;;;;3.32;85.87;101425.64;1682786;83;21399;-76
2022/11/28 11:00:38;;;;;;;34.83;20.00;;;;;;;3.33;85.82;101419.70;1682873;83;21553;-75
2022/11/28 11:03:27;;;;;;;35.28;20.05;;;;;;;3.35;85.72;101417.19;1683012;82;21464;-76
2022/11/28 11:06:12;;;;;;;32.95;20.60;;;;;;;3.38;85.77;101414.71;1624476;86;21594;-76
2022/11/28 11:08:57;;;;;;;35.95;20.10;;;;;;;3.41;85.63;101408.41;1650124;83;20962;-75
2022/11/28 11:11:47;;;;;;;35.28;20.35;;;;;;;3.43;85.78;101410.58;1662534;85;21040;-76
2022/11/28 11:14:38;;;;;;;34.78;20.15;;;;;;;3.45;85.64;101401.27;1662584;84;21475;-76
2022/11/28 11:17:36;;;;;;;37.23;19.90;;;;;;;3.45;85.73;101408.94;1649226;83;20998;-76
2022/11/28 11:20:37;;;;;;;34.18;19.98;;;;;;;3.49;85.68;101407.77;1714814;83;20975;-76
2022/11/28 11:23:23;;;;;;;33.20;19.98;;;;;;;3.51;85.67;101407.81;1713315;83;20931;-76
2022/11/28 11:26:28;;;;;;;37.30;20.60;;;;;;;3.54;85.77;101408.76;1715321;83;20979;-75
2022/11/28 11:29:29;;;;;;;36.38;19.32;;;;;;;3.58;85.72;101401.61;1716771;81;20927;-76
2022/11/28 11:32:29;;;;;;;33.30;19.85;;;;;;;3.60;85.75;101401.66;1715927;82;21305;-76
2022/11/28 11:35:23;;;;;;;33.80;19.87;;;;;;;3.63;85.51;101401.73;1715226;83;20963;-75
2022/11/28 11:38:26;;;;;;;35.88;19.87;;;;;;;3.65;85.73;101397.48;1716454;81;21542;-75
2022/11/28 11:41:29;;;;;;;35.35;20.20;;;;;;;3.70;85.75;101398.47;1714177;81;20969;-76
2022/11/28 11:44:22;;;;;;;32.25;20.40;;;;;;;3.74;85.76;101398.98;1717560;82;20919;-76
2022/11/28 11:47:09;;;;;;;35.68;20.08;;;;;;;3.77;85.69;101392.67;1715208;83;20979;-76
2022/11/28 11:50:04;;;;;;;31.27;19.05;;;;;;;3.80;85.62;101395.72;1716218;83;20946;-76
2022/11/28 11:53:13;;;;;;;33.73;19.67;;;;;;;3.82;85.71;101392.37;1714693;83;20987;-76
2022/11/28 11:56:01;;;;;;;35.13;21.10;;;;;;;3.85;85.57;101397.97;1658622;85;21588;-75
2022/11/28 11:58:50;;;;;;;33.98;20.37;;;;;;;3.84;85.58;101392.41;1658039;84;21472;-76
2022/11/28 12:01:37;;;;;;;35.05;20.85;;;;;;;3.84;85.59;101397.11;1659230;84;20953;-75
2022/11/28 12:04:27;;;;;;;;;;;;;;;3.86;85.57;101392.89;1658511;85;21439;-76
2022/11/28 12:07:26;;;;;;;32.55;19.65;;;;;;;3.91;85.46;101396.42;1651615;84;20225;-76
2022/11/28 12:10:16;;;;;;;35.35;20.70;;;;;;;3.96;85.64;101390.14;1654119;85;21407;-75
2022/11/28 12:13:02;;;;;;;36.83;20.10;;;;;;;4.01;85.54;101385.13;1640438;85;20969;-76
2022/11/28 12:16:25;;;;;;;33.58;20.85;;;;;;;4.05;85.57;101385.64;1640068;85;20940;-76
2022/11/28 12:19:42;;;;;;;41.77;22.22;;;;;;;4.09;85.54;101389.59;1644013;85;21044;-75
2022/11/28 12:22:47;;;;;;;34.98;20.72;;;;;;;4.13;85.56;101384.12;1635173;85;21803;-76
2022/11/28 12:25:54;;;;;;;39.23;23.45;;;;;;;4.15;85.49;101379.91;1638606;84;21630;-75
2022/11/28 12:29:12;;;;;;;44.03;23.67;;;;;;;4.15;85.49;101382.47;1681855;84;20922;-79
2022/11/28 12:32:49;;;;;;;37.45;20.72;;;;;;;4.18;85.54;101386.34;1686846;83;20926;-80
2022/11/28 12:35:41;;;;;;;38.30;23.05;;;;;;;4.21;85.52;101378.73;1683144;82;20930;-81
2022/11/28 12:38:40;;;;;;;39.90;21.93;;;;;;;4.24;85.43;101384.78;1683996;82;20966;-81
2022/11/28 12:41:51;;;;;;;44.85;22.70;;;;;;;4.26;85.40;101380.98;1684438;82;20934;-83
2022/11/28 12:44:47;;;;;;;36.13;21.50;;;;;;;4.28;85.42;101377.62;1680670;84;20930;-82
2022/11/28 12:48:00;;;;;;;37.45;21.50;;;;;;;4.27;85.33;101369.49;1683284;83;21916;-80
2022/11/28 12:50:56;;;;;;;36.50;21.05;;;;;;;4.29;85.40;101368.25;1681503;83;21395;-82
2022/11/28 12:53:46;;;;;;;38.38;21.97;;;;;;;4.33;85.44;101368.77;1662093;84;20942;-81
2022/11/28 12:56:55;;;;;;;36.40;21.93;;;;;;;4.32;85.30;101368.31;1679053;83;20986;-82
2022/11/28 13:00:09;;;;;;;40.70;22.02;;;;;;;4.29;85.23;101370.39;1682839;83;21050;-81
2022/11/28 13:03:10;;;;;;;35.13;21.55;;;;;;;4.26;85.20;101364.34;1686840;83;20950;-83
2022/11/28 13:06:37;;;;;;;38.60;21.77;;;;;;;4.22;85.14;101362.13;1666957;83;20950;-82
2022/11/28 13:09:37;;;;;;;39.00;22.02;;;;;;;4.18;85.15;101364.59;1631727;85;21458;-82